KEKN/EKN METAR and TAF weather

Enter ICAO airport designator
Station Type Date Time Source
KEKN METAR 2019/11/18 11:51 UTC NOAA

KEKN 181151Z AUTO 00000KT 9SM CLR M02/M03 A2981 RMK AO2 SLP117 I6000 T10171033 11017 21044 55003 $


Station Type Date Time Source
KEKN Decoded METAR 2019/11/18 11:51 UTC NOAA

JENNINGS RANDOLPH FIELD, WV, United States (KEKN) 38-53N 079-51W 603M
Nov 18, 2019 - 06:51 AM EST / 2019.11.18 1151 UTC
Wind: Calm:0
Visibility: 9 mile(s):0
Sky conditions: clear
Temperature: 28.9 F (-1.7 C)
Dew Point: 26.1 F (-3.3 C)
Relative Humidity: 88%
Pressure (altimeter): 29.81 in. Hg (1009 hPa)
Pressure tendency: 0.01 inches (0.3 hPa) lower than three hours ago
ob: KEKN 181151Z AUTO 00000KT 9SM CLR M02/M03 A2981 RMK AO2 SLP117 I6000 T10171033 11017 21044 55003
cycle: 12

Station Type Date Time Source
KEKN TAF 2019/11/18 12:22 UTC NOAA

TAF KEKN 181120Z 1812/1912 VRB03KT P6SM OVC250
FM181800 26004KT P6SM BKN080
FM182100 28005KT P6SM BKN035
FM191000 29004KT P6SM OVC025

Example: see airport list